Time;durP1;ratioP1;P1;durP2;ratioP2;P2;SDS_P1;SDS_P2;PMS_P1;PMS_P2;Temp;Humidity;BMP_temperature;BMP_pressure;BME280_temperature;BME280_humidity;BME280_pressure;Samples;Min_cycle;Max_cycle;Signal;HPM_P1;HPM_P2
2023/06/08 00:00:59;;;;;;;4.90;4.13;;;;;;;-144.30;81.33;85368.59;5130722;27;20200;-56
2023/06/08 00:03:27;;;;;;;6.10;4.13;;;;;;;-144.30;81.89;85390.47;5130015;27;20196;-56
2023/06/08 00:05:58;;;;;;;5.93;4.47;;;;;;;-144.30;81.93;85392.47;5129805;28;20198;-56
2023/06/08 00:08:25;;;;;;;6.63;4.80;;;;;;;-144.30;82.51;85398.41;5130725;27;20198;-55
2023/06/08 00:10:52;;;;;;;5.20;4.30;;;;;;;-144.30;82.61;85376.56;5130328;28;20194;-50
2023/06/08 00:13:19;;;;;;;5.17;4.67;;;;;;;-144.30;83.18;85412.34;5130722;27;20194;-51
2023/06/08 00:15:46;;;;;;;4.63;4.20;;;;;;;-144.30;83.44;85402.41;5130443;27;20205;-50
2023/06/08 00:18:13;;;;;;;4.30;3.90;;;;;;;-144.30;83.51;85380.53;5130307;27;20675;-55
2023/06/08 00:20:41;;;;;;;5.20;4.80;;;;;;;-144.30;84.06;85396.44;5130522;28;20279;-57
2023/06/08 00:23:08;;;;;;;7.13;4.97;;;;;;;-144.30;83.96;85416.31;5130280;28;20194;-56
2023/06/08 00:25:35;;;;;;;5.37;4.97;;;;;;;-144.30;84.06;85392.47;5130389;28;20587;-56
2023/06/08 00:28:02;;;;;;;11.30;5.27;;;;;;;-144.30;84.46;85408.34;5130359;27;20198;-56
2023/06/08 00:30:30;;;;;;;5.10;4.70;;;;;;;-144.30;84.54;85408.34;5130310;27;20224;-56
2023/06/08 00:32:56;;;;;;;6.97;5.23;;;;;;;-144.30;85.01;85380.53;5130528;28;20590;-56
2023/06/08 00:35:23;;;;;;;5.40;4.97;;;;;;;-144.30;84.68;85444.16;5130629;27;20572;-56
2023/06/08 00:37:52;;;;;;;5.87;5.37;;;;;;;-144.30;84.43;85338.78;5130346;27;20201;-56
2023/06/08 00:40:20;;;;;;;9.40;5.37;;;;;;;-144.30;84.57;85372.56;5133810;27;20212;-56
2023/06/08 00:42:47;;;;;;;6.03;5.43;;;;;;;-144.30;84.79;85424.25;5126969;27;20203;-56
2023/06/08 00:45:13;;;;;;;7.43;5.00;;;;;;;-144.30;84.05;85366.63;5112511;28;20290;-51
2023/06/08 00:47:41;;;;;;;6.77;5.50;;;;;;;-144.30;84.15;85344.75;5113397;28;20245;-56
2023/06/08 00:50:09;;;;;;;8.13;5.30;;;;;;;-144.30;84.02;85380.53;5133152;27;20194;-50
2023/06/08 00:52:38;;;;;;;6.00;5.47;;;;;;;-144.30;84.18;85394.44;5133256;27;20225;-51
2023/06/08 00:55:08;;;;;;;5.23;4.73;;;;;;;-144.30;84.14;85376.56;5133106;27;20679;-52
2023/06/08 00:57:37;;;;;;;5.60;5.13;;;;;;;-144.30;84.58;85406.38;5133289;27;20554;-51
2023/06/08 01:00:05;;;;;;;5.17;4.70;;;;;;;-144.30;84.73;85404.38;5133793;27;20198;-50
2023/06/08 01:02:33;;;;;;;4.80;4.50;;;;;;;-144.30;85.24;85400.41;5134255;27;20641;-50
2023/06/08 01:05:02;;;;;;;6.03;4.53;;;;;;;-144.30;85.00;85426.25;5133737;27;20194;-51
2023/06/08 01:07:35;;;;;;;5.50;5.00;;;;;;;-144.30;85.21;85376.56;5133897;27;20648;-56
2023/06/08 01:10:09;;;;;;;4.93;4.43;;;;;;;-144.30;85.30;85424.25;5133471;27;20194;-56
2023/06/08 01:12:44;;;;;;;7.77;4.67;;;;;;;-144.30;85.40;85418.31;5133092;27;20222;-55
2023/06/08 01:15:16;;;;;;;6.47;5.17;;;;;;;-144.30;85.22;85436.19;5133656;27;20576;-50
2023/06/08 01:17:47;;;;;;;5.10;4.50;;;;;;;-144.30;85.29;85376.56;5133498;27;20206;-51
2023/06/08 01:20:29;;;;;;;4.63;4.30;;;;;;;-144.30;84.84;85434.22;5134079;27;20190;-52
2023/06/08 01:23:26;;;;;;;5.63;5.10;;;;;;;-144.30;85.35;85452.09;5133532;27;20193;-52
2023/06/08 01:25:57;;;;;;;7.73;5.30;;;;;;;-144.30;85.46;85396.44;5133516;27;20190;-57
2023/06/08 01:28:26;;;;;;;5.70;4.93;;;;;;;-144.30;85.84;85378.53;5133642;27;20193;-59
2023/06/08 01:30:53;;;;;;;5.47;4.93;;;;;;;-144.30;85.59;85426.25;5133169;27;20203;-55
2023/06/08 01:33:22;;;;;;;7.17;5.03;;;;;;;-144.30;85.87;85336.78;5133397;27;20733;-56
2023/06/08 01:35:57;;;;;;;5.77;4.70;;;;;;;-144.30;86.04;85376.56;5133226;27;20225;-56
2023/06/08 01:38:33;;;;;;;5.07;4.67;;;;;;;-144.30;86.27;85384.50;5133201;27;20200;-51
2023/06/08 01:41:09;;;;;;;5.30;4.80;;;;;;;-144.30;86.63;85420.28;5133448;27;20201;-50
2023/06/08 01:43:39;;;;;;;5.20;4.63;;;;;;;-144.30;87.09;85400.41;5132673;27;20216;-52
2023/06/08 01:46:11;;;;;;;7.57;4.70;;;;;;;-144.30;87.46;85390.47;5132621;27;20190;-52
2023/06/08 01:48:40;;;;;;;8.40;4.53;;;;;;;-144.30;87.50;85414.31;5133046;27;20200;-52
2023/06/08 01:51:08;;;;;;;7.20;5.00;;;;;;;-144.30;87.48;85390.47;5132236;27;20198;-51
2023/06/08 01:53:35;;;;;;;5.10;4.70;;;;;;;-144.30;87.36;85420.28;5132986;27;20603;-52
2023/06/08 01:56:04;;;;;;;4.90;4.50;;;;;;;-144.30;87.40;85436.19;5132659;27;20583;-57
2023/06/08 01:58:31;;;;;;;5.23;4.83;;;;;;;-144.30;87.64;85386.50;5133067;27;20576;-57
2023/06/08 02:00:58;;;;;;;5.53;4.70;;;;;;;-144.30;88.01;85426.25;5133009;27;20197;-50
2023/06/08 02:03:25;;;;;;;11.60;5.33;;;;;;;-144.30;88.03;85368.59;5132920;27;20190;-49
2023/06/08 02:05:52;;;;;;;14.10;5.53;;;;;;;-144.30;88.08;85390.47;5132500;27;20612;-57
2023/06/08 02:08:19;;;;;;;5.63;5.13;;;;;;;-144.30;88.36;85422.28;5132772;27;20212;-55
2023/06/08 02:10:46;;;;;;;7.73;6.57;;;;;;;-144.30;88.45;85436.19;5132538;27;20303;-51
2023/06/08 02:13:15;;;;;;;7.90;6.03;;;;;;;-144.30;87.96;85400.41;5132439;27;20218;-51
2023/06/08 02:15:42;;;;;;;7.00;5.90;;;;;;;-144.30;88.04;85392.47;5132646;27;20639;-56
2023/06/08 02:18:09;;;;;;;6.47;6.07;;;;;;;-144.30;87.87;85348.72;5132604;27;20594;-57
2023/06/08 02:20:36;;;;;;;9.03;5.97;;;;;;;-144.30;87.64;85414.31;5132599;27;20717;-52
2023/06/08 02:23:02;;;;;;;6.57;5.90;;;;;;;-144.30;87.35;85384.50;5132262;27;20212;-56
2023/06/08 02:25:30;;;;;;;9.70;6.53;;;;;;;-144.30;87.13;85394.44;5132367;27;20667;-52
2023/06/08 02:27:57;;;;;;;9.10;7.43;;;;;;;-144.30;87.17;85420.28;5132157;27;20194;-51
2023/06/08 02:30:26;;;;;;;8.43;6.23;;;;;;;-144.30;86.41;85420.28;5132338;27;20198;-51
2023/06/08 02:32:53;;;;;;;7.17;6.57;;;;;;;-144.30;86.86;85384.50;5132079;27;20650;-51
2023/06/08 02:35:20;;;;;;;7.73;6.67;;;;;;;-144.30;86.85;85370.59;5132422;27;20585;-51
2023/06/08 02:37:46;;;;;;;6.40;5.87;;;;;;;-144.30;86.51;85414.31;5131809;27;20189;-51
2023/06/08 02:40:13;;;;;;;7.70;5.53;;;;;;;-144.30;86.36;85352.69;5131964;27;20194;-55
2023/06/08 02:42:40;;;;;;;5.83;5.33;;;;;;;-144.30;85.68;85332.81;5132055;27;20555;-57
2023/06/08 02:45:08;;;;;;;8.00;5.90;;;;;;;-144.30;85.89;85430.22;5131771;27;20190;-57
2023/06/08 02:47:36;;;;;;;5.47;4.93;;;;;;;-144.30;85.46;85382.53;5131750;27;20722;-56
2023/06/08 02:50:03;;;;;;;6.30;5.70;;;;;;;-144.30;85.74;85285.09;5127436;27;20222;-52
2023/06/08 02:52:30;;;;;;;6.10;5.03;;;;;;;-144.30;85.91;85426.25;5131015;27;20236;-56
2023/06/08 02:54:57;;;;;;;5.87;5.37;;;;;;;-144.30;85.90;85416.31;5130623;27;20222;-55
2023/06/08 02:57:24;;;;;;;11.93;6.87;;;;;;;-144.30;86.54;85400.41;5130833;27;20679;-56
2023/06/08 02:59:51;;;;;;;10.80;9.53;;;;;;;-144.30;86.37;85440.16;5131066;27;20279;-56
2023/06/08 03:02:18;;;;;;;10.90;8.33;;;;;;;-144.30;86.39;85424.25;5129857;27;20241;-56
2023/06/08 03:04:46;;;;;;;10.27;7.20;;;;;;;-144.30;86.29;85392.47;5130190;27;20222;-57
2023/06/08 03:07:15;;;;;;;6.13;5.73;;;;;;;-144.30;86.17;85412.34;5129965;27;20220;-54
2023/06/08 03:09:42;;;;;;;9.97;6.83;;;;;;;-144.30;85.79;85330.84;5130461;27;20866;-56
2023/06/08 03:12:12;;;;;;;10.50;8.40;;;;;;;-144.30;85.11;85374.56;5123672;27;20225;-56
2023/06/08 03:14:40;;;;;;;17.30;10.67;;;;;;;-144.30;84.55;85376.56;5115395;27;20664;-56
2023/06/08 03:17:07;;;;;;;15.50;10.23;;;;;;;-144.30;84.19;85358.66;5110379;28;20241;-49
2023/06/08 03:19:35;;;;;;;17.40;10.87;;;;;;;-144.30;83.66;85348.72;5110846;28;20578;-56
2023/06/08 03:22:06;;;;;;;14.87;10.50;;;;;;;-144.30;83.51;85384.50;5114653;27;20750;-56
2023/06/08 03:24:34;;;;;;;14.37;9.90;;;;;;;-144.30;83.21;85356.69;5131418;27;20194;-55
2023/06/08 03:27:01;;;;;;;15.33;9.70;;;;;;;-144.30;83.10;85332.81;5130831;27;20190;-56
2023/06/08 03:29:29;;;;;;;14.47;7.70;;;;;;;-144.30;82.52;85328.84;5131065;27;20220;-55
2023/06/08 03:31:56;;;;;;;10.87;7.10;;;;;;;-144.30;81.26;85312.94;5130632;27;20251;-57
2023/06/08 03:34:25;;;;;;;12.90;8.17;;;;;;;-144.30;80.36;85263.25;5131167;27;20189;-56
2023/06/08 03:36:52;;;;;;;12.63;7.53;;;;;;;-144.30;80.14;85318.91;5130848;27;20193;-56
2023/06/08 03:39:20;;;;;;;8.80;7.40;;;;;;;-144.30;79.54;85261.25;5130957;27;20583;-57
2023/06/08 03:41:47;;;;;;;8.38;7.15;;;;;;;-144.30;79.48;85277.16;5130726;27;20200;-55
2023/06/08 03:44:15;;;;;;;8.03;7.27;;;;;;;-144.30;78.64;85247.34;5130708;27;20197;-56
2023/06/08 03:46:42;;;;;;;11.35;7.05;;;;;;;-144.30;78.08;85211.56;5130486;27;20676;-57
2023/06/08 03:49:08;;;;;;;13.60;8.43;;;;;;;-144.30;77.33;85175.78;5130891;27;20579;-50
2023/06/08 03:51:35;;;;;;;9.27;7.05;;;;;;;-144.30;75.05;85094.28;5131091;28;20198;-50
2023/06/08 03:54:02;;;;;;;14.98;5.90;;;;;;;-144.30;70.12;84855.75;5129542;27;20304;-51
2023/06/08 03:56:30;;;;;;;6.63;6.03;;;;;;;-144.30;64.69;84694.75;5130389;28;20198;-50
2023/06/08 03:58:57;;;;;;;9.00;5.72;;;;;;;-144.30;60.05;84482.09;5123200;27;20603;-50
2023/06/08 04:01:27;;;;;;;8.43;5.25;;;;;;;-144.30;57.13;84307.22;5124641;28;20230;-49
2023/06/08 04:03:54;;;;;;;7.97;5.53;;;;;;;-144.30;53.81;84112.47;5129756;27;20233;-52
2023/06/08 04:06:23;;;;;;;5.82;5.10;;;;;;;-144.30;51.29;84001.19;5129103;28;20227;-51
2023/06/08 04:08:50;;;;;;;5.25;4.78;;;;;;;-144.30;49.80;83881.97;5129481;27;20782;-49
2023/06/08 04:11:17;;;;;;;6.40;5.25;;;;;;;-144.30;47.74;83719.03;5127786;28;20583;-50
2023/06/08 04:13:45;;;;;;;6.10;5.32;;;;;;;-144.30;45.51;83587.88;5131934;27;20240;-55
2023/06/08 04:16:13;;;;;;;8.32;5.50;;;;;;;-144.30;43.75;83264.03;5130713;27;20316;-57
2023/06/08 04:18:41;;;;;;;7.35;5.07;;;;;;;-144.30;42.20;83174.63;5133732;27;20220;-57
2023/06/08 04:21:08;;;;;;;9.40;4.70;;;;;;;-144.30;41.25;83095.16;5134174;27;20621;-56
2023/06/08 04:23:36;;;;;;;10.95;6.03;;;;;;;-144.30;41.68;83214.38;5134137;27;20222;-55
2023/06/08 04:26:04;;;;;;;11.90;5.20;;;;;;;-144.30;42.50;83303.75;5132903;27;20217;-54
2023/06/08 04:28:33;;;;;;;9.13;5.90;;;;;;;-144.30;43.42;83409.06;5133675;27;20274;-56
2023/06/08 04:31:04;;;;;;;6.40;5.68;;;;;;;-144.30;43.24;83349.47;5133417;27;20240;-57
2023/06/08 04:33:31;;;;;;;12.35;6.25;;;;;;;-144.30;42.68;83323.63;5133448;27;20239;-57
2023/06/08 04:35:58;;;;;;;9.88;6.35;;;;;;;-144.30;42.87;83413.03;5134143;27;20219;-56
2023/06/08 04:38:27;;;;;;;8.20;5.90;;;;;;;-144.30;42.87;83281.91;5134125;27;20202;-58
2023/06/08 04:40:55;;;;;;;9.98;6.03;;;;;;;-144.30;41.86;83242.19;5134286;27;20562;-56
2023/06/08 04:43:25;;;;;;;11.13;6.35;;;;;;;-144.30;40.53;83478.59;5133364;27;20229;-56
2023/06/08 04:45:57;;;;;;;11.02;6.43;;;;;;;-144.30;39.47;82884.59;5134258;27;20194;-51
2023/06/08 04:48:26;;;;;;;11.18;6.82;;;;;;;-144.30;39.05;82876.66;5133836;27;20224;-51
2023/06/08 04:50:53;;;;;;;24.75;7.10;;;;;;;-144.30;37.83;82745.53;5133775;27;20250;-50
2023/06/08 04:53:21;;;;;;;12.60;6.72;;;;;;;-144.30;37.40;82604.50;5133898;27;20222;-57
2023/06/08 04:55:49;;;;;;;9.52;6.40;;;;;;;-144.30;36.18;82493.28;5133884;27;20198;-52
2023/06/08 04:58:16;;;;;;;9.75;6.30;;;;;;;-144.30;35.78;82407.88;5133548;27;20200;-51
2023/06/08 05:00:42;;;;;;;10.30;6.85;;;;;;;-144.30;36.63;82614.44;5133765;27;20198;-51
2023/06/08 05:03:09;;;;;;;12.45;6.05;;;;;;;-144.30;36.89;82658.13;5133790;27;20194;-52
2023/06/08 05:05:38;;;;;;;6.95;5.82;;;;;;;-144.30;36.37;82540.94;5133638;27;20194;-51
2023/06/08 05:08:05;;;;;;;16.92;6.22;;;;;;;-144.30;35.58;82455.53;5133573;27;20200;-56
2023/06/08 05:10:32;;;;;;;13.88;6.95;;;;;;;-144.30;36.29;82399.91;5133521;27;20193;-56
2023/06/08 05:12:59;;;;;;;8.35;6.40;;;;;;;-144.30;35.66;82380.06;5133463;27;20729;-52
2023/06/08 05:15:26;;;;;;;12.13;7.13;;;;;;;-144.30;34.86;82225.13;5133343;27;20193;-52
2023/06/08 05:17:54;;;;;;;7.20;5.82;;;;;;;-144.30;34.30;82227.13;5133289;27;20255;-52
2023/06/08 05:20:24;;;;;;;10.85;6.20;;;;;;;-144.30;33.87;82102.00;5132789;27;20194;-52
2023/06/08 05:22:52;;;;;;;7.20;5.22;;;;;;;-144.30;33.32;82050.38;5132929;27;20213;-51
2023/06/08 05:25:19;;;;;;;5.55;4.53;;;;;;;-144.30;32.51;82080.16;5131312;27;20197;-52
2023/06/08 05:27:46;;;;;;;4.80;4.28;;;;;;;-144.30;32.49;82068.25;5132793;27;20659;-56
2023/06/08 05:30:13;;;;;;;6.07;4.22;;;;;;;-144.30;31.88;81931.22;5133195;27;20193;-56
2023/06/08 05:32:40;;;;;;;4.30;3.90;;;;;;;-144.30;32.01;82062.28;5133310;27;20243;-56
2023/06/08 05:35:08;;;;;;;4.53;4.10;;;;;;;-144.30;32.37;82169.53;5132970;27;20223;-56
2023/06/08 05:37:35;;;;;;;3.97;3.70;;;;;;;-144.30;32.38;82163.56;5131777;27;20206;-57
2023/06/08 05:40:04;;;;;;;4.65;4.28;;;;;;;-144.30;32.83;82179.47;5132788;27;20259;-52
2023/06/08 05:42:31;;;;;;;6.13;4.18;;;;;;;-144.30;32.67;82479.38;5133218;27;20190;-52
2023/06/08 05:44:58;;;;;;;5.70;4.32;;;;;;;-144.30;33.16;82320.47;5132772;27;20194;-52
2023/06/08 05:47:25;;;;;;;6.72;4.35;;;;;;;-144.30;33.46;82276.78;5132610;27;20240;-50
2023/06/08 05:49:52;;;;;;;5.43;4.00;;;;;;;-144.30;34.67;82594.56;5131604;27;20276;-51
2023/06/08 05:52:18;;;;;;;5.40;4.32;;;;;;;-144.30;35.46;82751.50;5130932;27;20208;-53
2023/06/08 05:54:46;;;;;;;5.90;4.68;;;;;;;-144.30;36.41;82954.13;5132334;27;20308;-51
2023/06/08 05:57:15;;;;;;;5.15;4.30;;;;;;;-144.30;38.22;83220.31;5132828;27;20298;-51
2023/06/08 05:59:42;;;;;;;4.50;4.10;;;;;;;-144.30;38.81;83236.22;5116142;27;20198;-51
2023/06/08 06:02:08;;;;;;;6.07;4.22;;;;;;;-144.30;38.47;83178.59;5112186;28;20637;-52
2023/06/08 06:04:36;;;;;;;10.18;4.25;;;;;;;-144.30;38.38;83101.13;5132140;27;20185;-51
2023/06/08 06:07:06;;;;;;;4.68;4.28;;;;;;;-144.30;38.65;83252.09;5132364;27;20216;-51
2023/06/08 06:09:33;;;;;;;6.63;4.32;;;;;;;-144.30;39.82;83319.66;5132305;27;20220;-51
2023/06/08 06:12:00;;;;;;;5.65;5.07;;;;;;;-144.30;39.99;83377.28;5132338;27;20194;-51
2023/06/08 06:14:28;;;;;;;5.38;4.90;;;;;;;-144.30;40.45;83399.13;5131694;27;20214;-51
2023/06/08 06:16:55;;;;;;;4.63;4.22;;;;;;;-144.30;40.31;83345.50;5131657;27;20273;-51
2023/06/08 06:19:22;;;;;;;8.23;4.53;;;;;;;-144.30;40.09;83307.75;5131657;27;20201;-56
2023/06/08 06:21:49;;;;;;;5.30;4.35;;;;;;;-144.30;39.35;83091.19;5131788;27;20193;-56
2023/06/08 06:24:17;;;;;;;6.00;4.72;;;;;;;-144.30;38.78;83142.84;5131606;27;20193;-56
2023/06/08 06:26:44;;;;;;;7.53;4.43;;;;;;;-144.30;38.53;83122.97;5131953;27;20687;-56
2023/06/08 06:29:11;;;;;;;5.70;5.30;;;;;;;-144.30;39.82;83319.66;5131933;27;20205;-57
2023/06/08 06:31:39;;;;;;;8.88;4.88;;;;;;;-144.30;40.62;83420.97;5131987;27;20205;-55
2023/06/08 06:34:06;;;;;;;6.85;4.68;;;;;;;-144.30;40.33;83353.44;5131836;27;20214;-55
2023/06/08 06:36:33;;;;;;;6.32;4.68;;;;;;;-144.30;39.65;83313.69;5131761;27;20190;-56
2023/06/08 06:38:59;;;;;;;6.22;4.07;;;;;;;-144.30;39.65;83258.06;5131753;27;20201;-56
2023/06/08 06:41:26;;;;;;;5.43;4.47;;;;;;;-144.30;39.46;83270.00;5131725;27;20214;-56
2023/06/08 06:43:53;;;;;;;4.95;4.53;;;;;;;-144.30;39.14;83258.06;5131618;27;20205;-52
2023/06/08 06:46:21;;;;;;;6.03;4.97;;;;;;;-144.30;38.78;83190.53;5128173;27;20206;-51
2023/06/08 06:48:49;;;;;;;12.43;5.07;;;;;;;-144.30;38.90;83150.78;5121463;27;20308;-50
2023/06/08 06:51:16;;;;;;;8.85;5.05;;;;;;;-144.30;39.17;83206.41;5127191;27;20257;-52
2023/06/08 06:53:43;;;;;;;5.57;5.15;;;;;;;-144.30;39.04;83524.31;5127686;27;20226;-51
2023/06/08 06:56:10;;;;;;;8.25;5.65;;;;;;;-144.30;39.34;83293.84;5129620;27;20218;-56
2023/06/08 06:58:37;;;;;;;6.80;5.65;;;;;;;-144.30;39.46;83262.03;5130614;27;20218;-55
2023/06/08 07:01:04;;;;;;;7.55;5.15;;;;;;;-144.30;39.44;83262.03;5130521;27;20224;-56
2023/06/08 07:03:31;;;;;;;7.80;5.18;;;;;;;-144.30;38.90;83226.28;5130938;27;20222;-56
2023/06/08 07:05:59;;;;;;;5.90;5.47;;;;;;;-144.30;39.82;83337.53;5130493;27;20633;-55
2023/06/08 07:08:27;;;;;;;6.47;5.28;;;;;;;-144.30;39.96;83325.63;5130183;27;20214;-56
2023/06/08 07:10:54;;;;;;;11.85;5.10;;;;;;;-144.30;39.38;83212.38;5129643;27;20649;-50
2023/06/08 07:13:21;;;;;;;11.02;5.53;;;;;;;-144.30;39.38;83246.16;5129814;27;20236;-55
2023/06/08 07:15:48;;;;;;;11.15;6.25;;;;;;;-144.30;39.09;83146.81;5127568;27;20217;-57
2023/06/08 07:18:16;;;;;;;7.70;6.68;;;;;;;-144.30;38.85;83190.53;5127039;27;20224;-51
2023/06/08 07:20:43;;;;;;;10.65;5.95;;;;;;;-144.30;39.99;83405.09;5125470;27;20271;-51
2023/06/08 07:23:11;;;;;;;8.18;6.22;;;;;;;-144.30;39.71;83295.81;5129494;27;20209;-56
2023/06/08 07:25:39;;;;;;;6.88;5.05;;;;;;;-144.30;39.85;83230.25;5129839;27;20217;-56
2023/06/08 07:28:06;;;;;;;6.35;5.78;;;;;;;-144.30;39.47;83295.81;5129904;27;20217;-56
2023/06/08 07:30:33;;;;;;;9.15;5.50;;;;;;;-144.30;40.02;83393.16;5130100;27;20220;-57
2023/06/08 07:33:00;;;;;;;11.70;5.22;;;;;;;-144.30;39.80;83285.88;5126744;27;20217;-55
2023/06/08 07:35:27;;;;;;;7.90;5.55;;;;;;;-144.30;38.64;83182.56;5129660;27;20296;-56
2023/06/08 07:37:54;;;;;;;5.90;4.95;;;;;;;-144.30;38.39;83154.75;5129166;27;20297;-56
2023/06/08 07:40:23;;;;;;;7.18;4.97;;;;;;;-144.30;38.41;83134.91;5126407;27;20266;-56
2023/06/08 07:42:51;;;;;;;6.07;5.32;;;;;;;-144.30;38.53;83162.72;5129718;27;20233;-57
2023/06/08 07:45:18;;;;;;;6.63;5.32;;;;;;;-144.30;38.12;83117.03;5129082;27;20182;-50
2023/06/08 07:47:45;;;;;;;7.15;4.95;;;;;;;-144.30;37.76;83045.50;5125042;27;20639;-55
2023/06/08 07:50:13;;;;;;;7.93;5.63;;;;;;;-144.30;37.25;83021.66;5130090;27;20269;-51
2023/06/08 07:52:41;;;;;;;6.18;5.50;;;;;;;-144.30;38.49;83126.94;5130266;27;20667;-52
2023/06/08 07:55:09;;;;;;;8.63;5.53;;;;;;;-144.30;37.69;83103.13;5129771;27;20206;-51
2023/06/08 07:57:37;;;;;;;9.80;5.78;;;;;;;-144.30;37.00;83011.72;5130065;28;20190;-52
2023/06/08 08:00:05;;;;;;;14.85;6.22;;;;;;;-144.30;36.61;82962.06;5130122;27;20584;-51
2023/06/08 08:02:32;;;;;;;8.90;5.10;;;;;;;-144.30;35.88;82856.78;5129570;27;20194;-53
2023/06/08 08:04:59;;;;;;;8.25;4.75;;;;;;;-144.30;34.90;82721.69;5129911;27;20737;-51
2023/06/08 08:07:26;;;;;;;8.20;5.05;;;;;;;-144.30;34.95;82640.25;5127523;28;20579;-56
2023/06/08 08:09:53;;;;;;;4.93;4.63;;;;;;;-144.30;34.58;82612.44;5130010;28;20200;-56
2023/06/08 08:12:20;;;;;;;6.45;5.32;;;;;;;-144.30;34.61;82705.81;5130315;28;20189;-56
2023/06/08 08:14:48;;;;;;;5.88;4.88;;;;;;;-144.30;33.80;82610.47;5130477;28;20221;-51
2023/06/08 08:17:15;;;;;;;7.18;4.97;;;;;;;-144.30;34.70;82693.88;5130295;28;20208;-52
2023/06/08 08:19:42;;;;;;;5.25;4.75;;;;;;;-144.30;34.50;82757.47;5130533;28;20209;-51
2023/06/08 08:22:09;;;;;;;5.40;4.80;;;;;;;-144.30;34.45;82795.19;5130669;27;20194;-57
2023/06/08 08:24:36;;;;;;;6.15;5.15;;;;;;;-144.30;34.71;82761.44;5130640;27;20658;-58
2023/06/08 08:27:03;;;;;;;13.00;5.47;;;;;;;-144.30;35.31;82844.88;5129940;28;20574;-52
2023/06/08 08:29:31;;;;;;;5.45;4.40;;;;;;;-144.30;35.04;82828.97;5130369;27;20194;-52
2023/06/08 08:31:59;;;;;;;7.25;4.90;;;;;;;-144.30;35.29;82910.41;5130379;27;20698;-52
2023/06/08 08:34:26;;;;;;;5.38;4.85;;;;;;;-144.30;35.36;82813.06;5130353;27;20224;-51
2023/06/08 08:36:53;;;;;;;5.88;4.78;;;;;;;-144.30;35.44;82858.78;5130617;27;20190;-57
2023/06/08 08:39:20;;;;;;;9.50;5.18;;;;;;;-144.30;36.00;82968.03;5130437;28;20194;-57
2023/06/08 08:41:53;;;;;;;10.85;4.90;;;;;;;-144.30;36.33;83011.72;5130579;27;20194;-52
2023/06/08 08:44:21;;;;;;;9.05;5.18;;;;;;;-144.30;36.67;83035.56;5130399;28;20271;-51
2023/06/08 08:46:50;;;;;;;6.93;5.18;;;;;;;-144.30;37.82;83156.75;5130196;27;20237;-52
2023/06/08 08:49:21;;;;;;;5.50;5.03;;;;;;;-144.30;37.57;83136.88;5130452;28;20726;-52
2023/06/08 08:51:50;;;;;;;7.13;5.30;;;;;;;-144.30;37.93;83222.31;5130748;28;20217;-52
2023/06/08 08:54:17;;;;;;;6.32;4.78;;;;;;;-144.30;38.24;83275.94;5129956;27;20222;-52
2023/06/08 08:56:45;;;;;;;7.95;5.40;;;;;;;-144.30;38.72;83228.28;5130113;28;20194;-51
2023/06/08 08:59:13;;;;;;;7.95;4.90;;;;;;;-144.30;39.32;83323.63;5129954;27;21359;-55
2023/06/08 09:01:41;;;;;;;7.38;4.95;;;;;;;-144.30;39.51;83377.28;5134036;27;20189;-57
2023/06/08 09:04:08;;;;;;;8.02;4.70;;;;;;;-144.30;40.33;83403.09;5133540;27;20190;-56
2023/06/08 09:06:36;;;;;;;5.55;5.05;;;;;;;-144.30;39.89;83409.06;5133770;27;20605;-51
2023/06/08 09:09:03;;;;;;;6.55;5.03;;;;;;;-144.30;40.43;83464.69;5133435;27;20727;-51
2023/06/08 09:11:34;;;;;;;6.68;4.40;;;;;;;-144.30;40.28;83419.00;5133387;27;20198;-51
2023/06/08 09:14:08;;;;;;;5.53;4.55;;;;;;;-144.30;39.97;83454.75;5133466;27;20228;-57
2023/06/08 09:16:43;;;;;;;5.18;4.75;;;;;;;-144.30;40.34;83472.66;5133589;27;20193;-57
2023/06/08 09:19:11;;;;;;;6.22;4.22;;;;;;;-144.30;40.63;83494.50;5133584;27;20697;-58
2023/06/08 09:21:43;;;;;;;8.82;4.40;;;;;;;-144.30;39.97;83436.88;5133883;27;20561;-57
2023/06/08 09:24:12;;;;;;;7.03;4.32;;;;;;;-144.30;40.59;83434.91;5132965;27;20190;-52
2023/06/08 09:26:45;;;;;;;5.13;3.90;;;;;;;-144.30;40.27;83448.81;5133311;27;20251;-52
2023/06/08 09:29:13;;;;;;;8.10;4.50;;;;;;;-144.30;39.84;83413.03;5133559;27;20671;-53
2023/06/08 09:31:50;;;;;;;4.88;4.40;;;;;;;-144.30;39.49;83250.13;5133422;27;20589;-52
2023/06/08 09:34:17;;;;;;;4.75;3.95;;;;;;;-144.30;39.44;83379.25;5133143;27;20703;-57
2023/06/08 09:36:49;;;;;;;5.68;4.10;;;;;;;-144.30;39.12;83339.53;5133233;27;20247;-52
2023/06/08 09:39:16;;;;;;;4.63;3.75;;;;;;;-144.30;38.30;83224.28;5133091;27;20201;-52
2023/06/08 09:41:57;;;;;;;5.55;3.55;;;;;;;-144.30;38.36;83266.03;5132901;27;20190;-52
2023/06/08 09:44:24;;;;;;;3.88;3.67;;;;;;;-144.30;38.36;83256.09;5133224;27;20186;-51
2023/06/08 09:46:50;;;;;;;6.22;3.90;;;;;;;-144.30;38.51;83220.31;5133254;27;20229;-51
2023/06/08 09:49:18;;;;;;;5.50;3.63;;;;;;;-144.30;38.51;83248.13;5133107;27;20671;-51
2023/06/08 09:51:50;;;;;;;4.07;3.78;;;;;;;-144.30;38.98;83275.94;5132944;27;20204;-52
2023/06/08 09:54:18;;;;;;;3.35;3.13;;;;;;;-144.30;38.92;83230.25;5132781;27;20711;-51
2023/06/08 09:56:48;;;;;;;4.85;3.38;;;;;;;-144.30;39.00;83240.19;5133024;27;20649;-51
2023/06/08 09:59:17;;;;;;;3.85;3.22;;;;;;;-144.30;39.02;83202.44;5132695;27;20201;-53
2023/06/08 10:01:48;;;;;;;4.60;3.53;;;;;;;-144.30;38.70;83238.19;5132675;27;20204;-51
2023/06/08 10:04:28;;;;;;;7.55;3.80;;;;;;;-144.30;38.93;83242.19;5132521;27;20186;-52
2023/06/08 10:06:58;;;;;;;4.88;3.60;;;;;;;-144.30;39.14;83329.59;5132786;27;20229;-53
2023/06/08 10:09:30;;;;;;;4.60;3.88;;;;;;;-144.30;38.95;83258.06;5132295;27;20194;-52
2023/06/08 10:11:57;;;;;;;4.72;3.58;;;;;;;-144.30;38.77;83309.72;5132121;27;20190;-52
2023/06/08 10:14:26;;;;;;;4.10;3.75;;;;;;;-144.30;38.80;83305.75;5131979;27;20228;-53
2023/06/08 10:16:54;;;;;;;3.28;3.10;;;;;;;-144.30;38.09;83353.44;5132382;27;20201;-52
2023/06/08 10:19:22;;;;;;;3.83;3.30;;;;;;;-144.30;38.77;83403.09;5131430;27;20198;-52
2023/06/08 10:21:51;;;;;;;4.10;3.65;;;;;;;-144.30;39.56;83436.88;5131548;27;20289;-51
2023/06/08 10:24:22;;;;;;;3.20;3.00;;;;;;;-144.30;40.11;83498.47;5131528;27;20200;-52
2023/06/08 10:26:50;;;;;;;6.43;3.63;;;;;;;-144.30;40.41;83482.56;5127146;27;20213;-52
2023/06/08 10:29:18;;;;;;;3.80;3.50;;;;;;;-144.30;40.63;83548.16;5127790;27;20593;-52
2023/06/08 10:31:48;;;;;;;3.85;3.55;;;;;;;-144.30;40.56;83560.06;5131467;27;20225;-57
2023/06/08 10:34:16;;;;;;;6.75;3.47;;;;;;;-144.30;40.78;83552.13;5131356;27;20691;-57
2023/06/08 10:36:45;;;;;;;3.72;3.33;;;;;;;-144.30;40.60;83536.22;5131477;27;20219;-52
2023/06/08 10:39:14;;;;;;;4.07;3.60;;;;;;;-144.30;40.72;83494.50;5131125;27;20728;-57
2023/06/08 10:41:44;;;;;;;7.40;3.88;;;;;;;-144.30;41.36;83625.63;5131408;27;20198;-57
2023/06/08 10:44:25;;;;;;;3.40;3.10;;;;;;;-144.30;41.47;83603.78;5130943;27;20190;-51
2023/06/08 10:46:59;;;;;;;10.52;3.88;;;;;;;-144.30;42.15;83583.91;5131001;27;20217;-52
2023/06/08 10:49:30;;;;;;;3.58;3.38;;;;;;;-144.30;42.28;83681.28;5130841;27;20627;-58
2023/06/08 10:51:57;;;;;;;6.72;3.80;;;;;;;-144.30;42.66;83689.22;5128565;27;20201;-57
2023/06/08 10:54:24;;;;;;;4.65;4.05;;;;;;;-144.30;43.11;83766.72;5130871;27;20639;-57
2023/06/08 10:56:56;;;;;;;9.90;3.83;;;;;;;-144.30;43.06;83701.13;5130961;27;20196;-57
2023/06/08 10:59:26;;;;;;;3.85;3.55;;;;;;;-144.30;42.61;83711.06;5130121;27;20198;-57
2023/06/08 11:01:52;;;;;;;5.13;3.88;;;;;;;-144.30;42.77;83719.03;5130409;27;20196;-57
2023/06/08 11:04:21;;;;;;;8.63;3.60;;;;;;;-144.30;42.85;83703.13;5130559;27;20681;-57
2023/06/08 11:06:48;;;;;;;4.72;3.40;;;;;;;-144.30;42.63;83719.03;5130534;27;20204;-57
2023/06/08 11:09:16;;;;;;;5.95;4.00;;;;;;;-144.30;42.98;83748.81;5130518;27;20232;-56
2023/06/08 11:11:53;;;;;;;5.05;3.58;;;;;;;-144.30;42.51;83734.91;5130547;27;20194;-57
2023/06/08 11:14:21;;;;;;;16.85;4.05;;;;;;;-144.30;42.75;83679.28;5130219;27;20200;-57
2023/06/08 11:16:52;;;;;;;7.85;3.42;;;;;;;-144.30;42.10;83689.22;5130630;27;20257;-58
2023/06/08 11:19:19;;;;;;;6.78;3.53;;;;;;;-144.30;42.42;83723.00;5128724;27;20196;-57
2023/06/08 11:21:50;;;;;;;3.85;3.53;;;;;;;-144.30;42.09;83699.16;5129973;27;20190;-52